sensor_id;sensor_type;location;lat;lon;timestamp;P1;durP1;ratioP1;P2;durP2;ratioP2
66183;SDS011;52989;48.796;9.806;2022-07-18T00:01:56;3.63;;;2.03;;
66183;SDS011;52989;48.796;9.806;2022-07-18T00:04:24;2.70;;;1.83;;
66183;SDS011;52989;48.796;9.806;2022-07-18T00:06:49;2.58;;;1.52;;
66183;SDS011;52989;48.796;9.806;2022-07-18T00:09:15;3.22;;;1.70;;
66183;SDS011;52989;48.796;9.806;2022-07-18T00:11:41;5.07;;;2.03;;
66183;SDS011;52989;48.796;9.806;2022-07-18T00:14:07;2.50;;;1.80;;
66183;SDS011;52989;48.796;9.806;2022-07-18T00:16:32;5.00;;;1.80;;
66183;SDS011;52989;48.796;9.806;2022-07-18T00:18:58;3.92;;;1.98;;
66183;SDS011;52989;48.796;9.806;2022-07-18T00:21:25;2.85;;;1.85;;
66183;SDS011;52989;48.796;9.806;2022-07-18T00:23:51;3.40;;;1.95;;
66183;SDS011;52989;48.796;9.806;2022-07-18T00:26:17;2.75;;;1.80;;
66183;SDS011;52989;48.796;9.806;2022-07-18T00:28:42;4.20;;;1.95;;
66183;SDS011;52989;48.796;9.806;2022-07-18T00:31:08;4.60;;;2.33;;
66183;SDS011;52989;48.796;9.806;2022-07-18T00:33:33;3.80;;;2.00;;
66183;SDS011;52989;48.796;9.806;2022-07-18T00:35:59;3.78;;;1.73;;
66183;SDS011;52989;48.796;9.806;2022-07-18T00:38:25;3.38;;;1.80;;
66183;SDS011;52989;48.796;9.806;2022-07-18T00:40:51;3.90;;;1.90;;
66183;SDS011;52989;48.796;9.806;2022-07-18T00:43:16;3.55;;;2.10;;
66183;SDS011;52989;48.796;9.806;2022-07-18T00:45:45;4.00;;;1.90;;
66183;SDS011;52989;48.796;9.806;2022-07-18T00:48:12;2.70;;;2.13;;
66183;SDS011;52989;48.796;9.806;2022-07-18T00:50:39;2.53;;;1.90;;
66183;SDS011;52989;48.796;9.806;2022-07-18T00:53:05;3.33;;;2.15;;
66183;SDS011;52989;48.796;9.806;2022-07-18T00:55:31;2.78;;;1.77;;
66183;SDS011;52989;48.796;9.806;2022-07-18T00:57:57;3.20;;;1.80;;
66183;SDS011;52989;48.796;9.806;2022-07-18T01:00:23;3.40;;;2.05;;
66183;SDS011;52989;48.796;9.806;2022-07-18T01:03:08;3.20;;;1.90;;
66183;SDS011;52989;48.796;9.806;2022-07-18T01:05:34;2.72;;;1.70;;
66183;SDS011;52989;48.796;9.806;2022-07-18T01:07:59;2.95;;;1.85;;
66183;SDS011;52989;48.796;9.806;2022-07-18T01:10:26;4.47;;;1.80;;
66183;SDS011;52989;48.796;9.806;2022-07-18T01:12:51;4.43;;;1.65;;
66183;SDS011;52989;48.796;9.806;2022-07-18T01:15:17;2.45;;;1.80;;
66183;SDS011;52989;48.796;9.806;2022-07-18T01:17:42;3.67;;;1.90;;
66183;SDS011;52989;48.796;9.806;2022-07-18T01:20:08;3.40;;;1.77;;
66183;SDS011;52989;48.796;9.806;2022-07-18T01:22:34;1.67;;;1.40;;
66183;SDS011;52989;48.796;9.806;2022-07-18T01:25:00;3.10;;;1.70;;
66183;SDS011;52989;48.796;9.806;2022-07-18T01:27:25;2.40;;;1.65;;
66183;SDS011;52989;48.796;9.806;2022-07-18T01:29:52;2.30;;;1.70;;
66183;SDS011;52989;48.796;9.806;2022-07-18T01:32:18;3.95;;;1.70;;
66183;SDS011;52989;48.796;9.806;2022-07-18T01:34:46;4.30;;;1.80;;
66183;SDS011;52989;48.796;9.806;2022-07-18T01:37:13;2.83;;;1.83;;
66183;SDS011;52989;48.796;9.806;2022-07-18T01:39:40;2.38;;;1.55;;
66183;SDS011;52989;48.796;9.806;2022-07-18T01:42:07;5.10;;;1.60;;
66183;SDS011;52989;48.796;9.806;2022-07-18T01:44:35;2.67;;;1.60;;
66183;SDS011;52989;48.796;9.806;2022-07-18T01:47:01;2.38;;;1.80;;
66183;SDS011;52989;48.796;9.806;2022-07-18T01:49:28;4.28;;;1.90;;
66183;SDS011;52989;48.796;9.806;2022-07-18T01:51:55;2.65;;;1.50;;
66183;SDS011;52989;48.796;9.806;2022-07-18T01:54:26;3.60;;;1.98;;
66183;SDS011;52989;48.796;9.806;2022-07-18T01:56:53;3.08;;;2.13;;
66183;SDS011;52989;48.796;9.806;2022-07-18T01:59:19;2.53;;;1.60;;
66183;SDS011;52989;48.796;9.806;2022-07-18T02:01:45;4.75;;;1.73;;
66183;SDS011;52989;48.796;9.806;2022-07-18T02:04:11;2.80;;;1.90;;
66183;SDS011;52989;48.796;9.806;2022-07-18T02:06:37;2.50;;;1.83;;
66183;SDS011;52989;48.796;9.806;2022-07-18T02:09:03;3.65;;;1.63;;
66183;SDS011;52989;48.796;9.806;2022-07-18T02:11:29;4.32;;;2.00;;
66183;SDS011;52989;48.796;9.806;2022-07-18T02:13:55;3.30;;;2.35;;
66183;SDS011;52989;48.796;9.806;2022-07-18T02:16:20;4.70;;;2.10;;
66183;SDS011;52989;48.796;9.806;2022-07-18T02:18:46;4.40;;;1.90;;
66183;SDS011;52989;48.796;9.806;2022-07-18T02:21:12;3.90;;;2.00;;
66183;SDS011;52989;48.796;9.806;2022-07-18T02:23:39;3.72;;;1.83;;
66183;SDS011;52989;48.796;9.806;2022-07-18T02:26:05;4.43;;;1.95;;
66183;SDS011;52989;48.796;9.806;2022-07-18T02:28:30;4.65;;;2.28;;
66183;SDS011;52989;48.796;9.806;2022-07-18T02:30:56;3.47;;;1.98;;
66183;SDS011;52989;48.796;9.806;2022-07-18T02:33:22;4.20;;;2.05;;
66183;SDS011;52989;48.796;9.806;2022-07-18T02:35:47;2.10;;;1.75;;
66183;SDS011;52989;48.796;9.806;2022-07-18T02:38:13;4.85;;;2.10;;
66183;SDS011;52989;48.796;9.806;2022-07-18T02:40:39;5.93;;;2.30;;
66183;SDS011;52989;48.796;9.806;2022-07-18T02:43:04;2.45;;;1.77;;
66183;SDS011;52989;48.796;9.806;2022-07-18T02:45:30;4.47;;;2.10;;
66183;SDS011;52989;48.796;9.806;2022-07-18T02:47:56;3.22;;;2.00;;
66183;SDS011;52989;48.796;9.806;2022-07-18T02:50:22;4.70;;;1.90;;
66183;SDS011;52989;48.796;9.806;2022-07-18T02:52:48;3.80;;;2.25;;
66183;SDS011;52989;48.796;9.806;2022-07-18T02:55:15;4.38;;;2.15;;
66183;SDS011;52989;48.796;9.806;2022-07-18T02:57:41;3.70;;;1.88;;
66183;SDS011;52989;48.796;9.806;2022-07-18T03:00:08;4.95;;;1.90;;
66183;SDS011;52989;48.796;9.806;2022-07-18T03:02:35;3.80;;;2.15;;
66183;SDS011;52989;48.796;9.806;2022-07-18T03:05:01;5.55;;;2.10;;
66183;SDS011;52989;48.796;9.806;2022-07-18T03:07:27;5.90;;;2.08;;
66183;SDS011;52989;48.796;9.806;2022-07-18T03:09:53;4.18;;;2.05;;
66183;SDS011;52989;48.796;9.806;2022-07-18T03:12:18;2.85;;;1.85;;
66183;SDS011;52989;48.796;9.806;2022-07-18T03:14:44;4.55;;;1.80;;
66183;SDS011;52989;48.796;9.806;2022-07-18T03:17:09;3.22;;;1.73;;
66183;SDS011;52989;48.796;9.806;2022-07-18T03:19:36;2.33;;;1.70;;
66183;SDS011;52989;48.796;9.806;2022-07-18T03:22:02;3.28;;;1.73;;
66183;SDS011;52989;48.796;9.806;2022-07-18T03:24:29;3.42;;;1.73;;
66183;SDS011;52989;48.796;9.806;2022-07-18T03:26:55;4.15;;;1.65;;
66183;SDS011;52989;48.796;9.806;2022-07-18T03:29:21;3.22;;;1.73;;
66183;SDS011;52989;48.796;9.806;2022-07-18T03:31:46;2.58;;;1.60;;
66183;SDS011;52989;48.796;9.806;2022-07-18T03:34:12;4.40;;;1.92;;
66183;SDS011;52989;48.796;9.806;2022-07-18T03:36:38;6.03;;;2.20;;
66183;SDS011;52989;48.796;9.806;2022-07-18T03:39:05;2.65;;;2.05;;
66183;SDS011;52989;48.796;9.806;2022-07-18T03:41:31;3.35;;;2.55;;
66183;SDS011;52989;48.796;9.806;2022-07-18T03:43:58;5.03;;;2.22;;
66183;SDS011;52989;48.796;9.806;2022-07-18T03:46:24;4.30;;;2.33;;
66183;SDS011;52989;48.796;9.806;2022-07-18T03:48:49;4.57;;;2.40;;
66183;SDS011;52989;48.796;9.806;2022-07-18T03:51:15;6.57;;;2.30;;
66183;SDS011;52989;48.796;9.806;2022-07-18T03:53:41;3.47;;;2.05;;
66183;SDS011;52989;48.796;9.806;2022-07-18T03:56:06;3.47;;;2.38;;
66183;SDS011;52989;48.796;9.806;2022-07-18T03:58:32;5.10;;;2.33;;
66183;SDS011;52989;48.796;9.806;2022-07-18T04:00:58;3.10;;;2.40;;
66183;SDS011;52989;48.796;9.806;2022-07-18T04:03:24;2.97;;;1.90;;
66183;SDS011;52989;48.796;9.806;2022-07-18T04:05:50;4.13;;;2.05;;
66183;SDS011;52989;48.796;9.806;2022-07-18T04:08:15;6.13;;;2.00;;
66183;SDS011;52989;48.796;9.806;2022-07-18T04:10:41;4.07;;;2.00;;
66183;SDS011;52989;48.796;9.806;2022-07-18T04:13:08;3.88;;;1.70;;
66183;SDS011;52989;48.796;9.806;2022-07-18T04:15:34;2.05;;;1.75;;
66183;SDS011;52989;48.796;9.806;2022-07-18T04:18:00;2.42;;;1.60;;
66183;SDS011;52989;48.796;9.806;2022-07-18T04:20:26;2.78;;;1.60;;
66183;SDS011;52989;48.796;9.806;2022-07-18T04:22:53;4.15;;;1.65;;
66183;SDS011;52989;48.796;9.806;2022-07-18T04:25:22;4.40;;;1.98;;
66183;SDS011;52989;48.796;9.806;2022-07-18T04:27:49;4.25;;;1.90;;
66183;SDS011;52989;48.796;9.806;2022-07-18T04:30:17;2.72;;;1.73;;
66183;SDS011;52989;48.796;9.806;2022-07-18T04:32:44;2.53;;;1.80;;
66183;SDS011;52989;48.796;9.806;2022-07-18T04:35:10;3.47;;;1.85;;
66183;SDS011;52989;48.796;9.806;2022-07-18T04:37:36;6.53;;;1.70;;
66183;SDS011;52989;48.796;9.806;2022-07-18T04:40:06;3.33;;;1.90;;
66183;SDS011;52989;48.796;9.806;2022-07-18T04:42:33;3.33;;;2.10;;
66183;SDS011;52989;48.796;9.806;2022-07-18T04:44:59;4.88;;;2.28;;
66183;SDS011;52989;48.796;9.806;2022-07-18T04:47:25;3.67;;;2.20;;
66183;SDS011;52989;48.796;9.806;2022-07-18T04:49:51;3.28;;;1.98;;
66183;SDS011;52989;48.796;9.806;2022-07-18T04:52:17;3.78;;;2.10;;
66183;SDS011;52989;48.796;9.806;2022-07-18T04:54:43;3.95;;;2.20;;
66183;SDS011;52989;48.796;9.806;2022-07-18T04:57:08;4.55;;;2.45;;
66183;SDS011;52989;48.796;9.806;2022-07-18T04:59:36;3.13;;;1.80;;
66183;SDS011;52989;48.796;9.806;2022-07-18T05:02:03;4.93;;;1.90;;
66183;SDS011;52989;48.796;9.806;2022-07-18T05:04:29;2.25;;;1.67;;
66183;SDS011;52989;48.796;9.806;2022-07-18T05:06:54;3.97;;;1.98;;
66183;SDS011;52989;48.796;9.806;2022-07-18T05:09:20;3.97;;;2.20;;
66183;SDS011;52989;48.796;9.806;2022-07-18T05:11:45;3.55;;;2.00;;
66183;SDS011;52989;48.796;9.806;2022-07-18T05:14:11;5.88;;;1.70;;
66183;SDS011;52989;48.796;9.806;2022-07-18T05:16:36;3.58;;;1.90;;
66183;SDS011;52989;48.796;9.806;2022-07-18T05:19:02;2.78;;;1.88;;
66183;SDS011;52989;48.796;9.806;2022-07-18T05:21:28;4.65;;;1.98;;
66183;SDS011;52989;48.796;9.806;2022-07-18T05:23:53;3.22;;;2.00;;
66183;SDS011;52989;48.796;9.806;2022-07-18T05:26:19;3.95;;;1.70;;
66183;SDS011;52989;48.796;9.806;2022-07-18T05:28:44;2.35;;;1.65;;
66183;SDS011;52989;48.796;9.806;2022-07-18T05:31:10;2.97;;;1.63;;
66183;SDS011;52989;48.796;9.806;2022-07-18T05:33:36;3.60;;;1.70;;
66183;SDS011;52989;48.796;9.806;2022-07-18T05:36:02;7.93;;;1.90;;
66183;SDS011;52989;48.796;9.806;2022-07-18T05:38:30;3.47;;;1.90;;
66183;SDS011;52989;48.796;9.806;2022-07-18T05:40:56;2.50;;;1.63;;
66183;SDS011;52989;48.796;9.806;2022-07-18T05:43:22;2.88;;;1.70;;
66183;SDS011;52989;48.796;9.806;2022-07-18T05:45:47;7.72;;;2.20;;
66183;SDS011;52989;48.796;9.806;2022-07-18T05:48:13;6.80;;;1.90;;
66183;SDS011;52989;48.796;9.806;2022-07-18T05:50:39;4.63;;;2.10;;
66183;SDS011;52989;48.796;9.806;2022-07-18T05:53:04;5.18;;;1.77;;
66183;SDS011;52989;48.796;9.806;2022-07-18T05:55:30;7.70;;;2.25;;
66183;SDS011;52989;48.796;9.806;2022-07-18T05:57:56;3.92;;;1.88;;
66183;SDS011;52989;48.796;9.806;2022-07-18T06:00:22;5.15;;;2.30;;
66183;SDS011;52989;48.796;9.806;2022-07-18T06:02:48;3.20;;;1.98;;
66183;SDS011;52989;48.796;9.806;2022-07-18T06:05:15;5.20;;;1.77;;
66183;SDS011;52989;48.796;9.806;2022-07-18T06:07:41;4.45;;;2.20;;
66183;SDS011;52989;48.796;9.806;2022-07-18T06:10:07;4.40;;;2.13;;
66183;SDS011;52989;48.796;9.806;2022-07-18T06:12:33;3.17;;;1.80;;
66183;SDS011;52989;48.796;9.806;2022-07-18T06:14:59;3.92;;;1.60;;
66183;SDS011;52989;48.796;9.806;2022-07-18T06:17:25;5.00;;;2.05;;
66183;SDS011;52989;48.796;9.806;2022-07-18T06:19:52;5.28;;;1.90;;
66183;SDS011;52989;48.796;9.806;2022-07-18T06:22:19;3.40;;;1.60;;
66183;SDS011;52989;48.796;9.806;2022-07-18T06:24:45;3.40;;;1.63;;
66183;SDS011;52989;48.796;9.806;2022-07-18T06:27:11;4.45;;;1.77;;
66183;SDS011;52989;48.796;9.806;2022-07-18T06:29:36;3.13;;;1.60;;
66183;SDS011;52989;48.796;9.806;2022-07-18T06:32:02;4.57;;;1.75;;
66183;SDS011;52989;48.796;9.806;2022-07-18T06:34:27;2.67;;;1.45;;
66183;SDS011;52989;48.796;9.806;2022-07-18T06:36:53;4.38;;;1.60;;
66183;SDS011;52989;48.796;9.806;2022-07-18T06:39:19;4.70;;;1.63;;
66183;SDS011;52989;48.796;9.806;2022-07-18T06:41:44;4.10;;;1.85;;
66183;SDS011;52989;48.796;9.806;2022-07-18T06:44:10;5.00;;;1.60;;
66183;SDS011;52989;48.796;9.806;2022-07-18T06:46:36;6.80;;;1.67;;
66183;SDS011;52989;48.796;9.806;2022-07-18T06:49:03;8.95;;;1.60;;
66183;SDS011;52989;48.796;9.806;2022-07-18T06:51:29;4.32;;;1.30;;
66183;SDS011;52989;48.796;9.806;2022-07-18T06:53:56;6.15;;;1.60;;
66183;SDS011;52989;48.796;9.806;2022-07-18T06:56:22;3.35;;;1.35;;
66183;SDS011;52989;48.796;9.806;2022-07-18T06:58:47;2.95;;;1.33;;
66183;SDS011;52989;48.796;9.806;2022-07-18T07:01:16;3.22;;;1.55;;
66183;SDS011;52989;48.796;9.806;2022-07-18T07:03:43;5.93;;;1.50;;
66183;SDS011;52989;48.796;9.806;2022-07-18T07:06:09;1.70;;;1.10;;
66183;SDS011;52989;48.796;9.806;2022-07-18T07:08:35;5.10;;;1.33;;
66183;SDS011;52989;48.796;9.806;2022-07-18T07:11:01;4.45;;;1.40;;
66183;SDS011;52989;48.796;9.806;2022-07-18T07:13:26;3.08;;;1.20;;
66183;SDS011;52989;48.796;9.806;2022-07-18T07:15:52;2.13;;;1.15;;
66183;SDS011;52989;48.796;9.806;2022-07-18T07:18:18;2.95;;;1.30;;
66183;SDS011;52989;48.796;9.806;2022-07-18T07:20:43;2.33;;;1.40;;
66183;SDS011;52989;48.796;9.806;2022-07-18T07:23:09;4.07;;;1.25;;
66183;SDS011;52989;48.796;9.806;2022-07-18T07:25:35;3.03;;;1.10;;
66183;SDS011;52989;48.796;9.806;2022-07-18T07:28:02;1.98;;;0.98;;
66183;SDS011;52989;48.796;9.806;2022-07-18T07:30:28;2.38;;;1.10;;
66183;SDS011;52989;48.796;9.806;2022-07-18T07:32:54;3.10;;;1.02;;
66183;SDS011;52989;48.796;9.806;2022-07-18T07:35:20;4.60;;;1.20;;
66183;SDS011;52989;48.796;9.806;2022-07-18T07:37:53;2.63;;;1.35;;
66183;SDS011;52989;48.796;9.806;2022-07-18T07:40:20;3.22;;;1.20;;
66183;SDS011;52989;48.796;9.806;2022-07-18T07:42:47;2.15;;;0.90;;
66183;SDS011;52989;48.796;9.806;2022-07-18T07:45:13;2.65;;;0.95;;
66183;SDS011;52989;48.796;9.806;2022-07-18T07:47:39;2.03;;;1.20;;
66183;SDS011;52989;48.796;9.806;2022-07-18T07:50:06;2.45;;;1.10;;
66183;SDS011;52989;48.796;9.806;2022-07-18T07:52:33;6.55;;;1.30;;
66183;SDS011;52989;48.796;9.806;2022-07-18T07:54:59;2.63;;;1.20;;
66183;SDS011;52989;48.796;9.806;2022-07-18T07:57:25;4.63;;;1.40;;
66183;SDS011;52989;48.796;9.806;2022-07-18T07:59:51;3.95;;;1.50;;
66183;SDS011;52989;48.796;9.806;2022-07-18T08:02:17;5.22;;;1.40;;
66183;SDS011;52989;48.796;9.806;2022-07-18T08:04:43;6.07;;;1.45;;
66183;SDS011;52989;48.796;9.806;2022-07-18T08:07:09;3.65;;;1.23;;
66183;SDS011;52989;48.796;9.806;2022-07-18T08:09:34;7.88;;;1.73;;
66183;SDS011;52989;48.796;9.806;2022-07-18T08:12:00;4.80;;;1.30;;
66183;SDS011;52989;48.796;9.806;2022-07-18T08:14:25;3.42;;;1.40;;
66183;SDS011;52989;48.796;9.806;2022-07-18T08:16:51;4.35;;;1.35;;
66183;SDS011;52989;48.796;9.806;2022-07-18T08:19:17;2.65;;;1.33;;
66183;SDS011;52989;48.796;9.806;2022-07-18T08:21:43;4.85;;;1.30;;
66183;SDS011;52989;48.796;9.806;2022-07-18T08:24:08;3.25;;;1.40;;
66183;SDS011;52989;48.796;9.806;2022-07-18T08:26:35;2.17;;;1.60;;
66183;SDS011;52989;48.796;9.806;2022-07-18T08:29:04;8.55;;;1.50;;
66183;SDS011;52989;48.796;9.806;2022-07-18T08:31:30;4.68;;;1.70;;
66183;SDS011;52989;48.796;9.806;2022-07-18T08:33:55;4.65;;;1.73;;
66183;SDS011;52989;48.796;9.806;2022-07-18T08:36:21;6.10;;;1.48;;
66183;SDS011;52989;48.796;9.806;2022-07-18T08:38:46;12.07;;;1.70;;
66183;SDS011;52989;48.796;9.806;2022-07-18T08:41:12;1.92;;;1.35;;
66183;SDS011;52989;48.796;9.806;2022-07-18T08:43:41;3.72;;;1.50;;
66183;SDS011;52989;48.796;9.806;2022-07-18T08:46:07;3.97;;;1.70;;
66183;SDS011;52989;48.796;9.806;2022-07-18T08:48:34;2.17;;;1.60;;
66183;SDS011;52989;48.796;9.806;2022-07-18T08:51:00;3.30;;;1.67;;
66183;SDS011;52989;48.796;9.806;2022-07-18T08:53:26;3.35;;;1.50;;
66183;SDS011;52989;48.796;9.806;2022-07-18T08:55:52;4.30;;;1.55;;
66183;SDS011;52989;48.796;9.806;2022-07-18T08:58:18;3.55;;;1.50;;
66183;SDS011;52989;48.796;9.806;2022-07-18T09:00:44;3.47;;;1.67;;
66183;SDS011;52989;48.796;9.806;2022-07-18T09:03:10;3.45;;;1.63;;
66183;SDS011;52989;48.796;9.806;2022-07-18T09:05:36;1.80;;;1.40;;
66183;SDS011;52989;48.796;9.806;2022-07-18T09:08:12;3.40;;;1.50;;
66183;SDS011;52989;48.796;9.806;2022-07-18T09:10:54;3.83;;;1.52;;
66183;SDS011;52989;48.796;9.806;2022-07-18T09:13:24;6.07;;;1.75;;
66183;SDS011;52989;48.796;9.806;2022-07-18T09:18:28;2.63;;;1.38;;
66183;SDS011;52989;48.796;9.806;2022-07-18T09:20:58;4.47;;;1.63;;
66183;SDS011;52989;48.796;9.806;2022-07-18T09:23:27;2.92;;;1.45;;
66183;SDS011;52989;48.796;9.806;2022-07-18T09:25:54;3.92;;;1.52;;
66183;SDS011;52989;48.796;9.806;2022-07-18T09:28:20;2.60;;;1.55;;
66183;SDS011;52989;48.796;9.806;2022-07-18T09:30:45;3.90;;;1.38;;
66183;SDS011;52989;48.796;9.806;2022-07-18T09:33:11;4.28;;;1.50;;
66183;SDS011;52989;48.796;9.806;2022-07-18T09:35:42;3.05;;;1.55;;
66183;SDS011;52989;48.796;9.806;2022-07-18T09:38:09;4.75;;;1.48;;
66183;SDS011;52989;48.796;9.806;2022-07-18T09:40:38;2.70;;;1.45;;
66183;SDS011;52989;48.796;9.806;2022-07-18T09:43:06;4.13;;;1.55;;
66183;SDS011;52989;48.796;9.806;2022-07-18T09:45:34;2.28;;;1.38;;
66183;SDS011;52989;48.796;9.806;2022-07-18T09:48:08;4.47;;;1.50;;
66183;SDS011;52989;48.796;9.806;2022-07-18T09:50:37;1.95;;;1.40;;
66183;SDS011;52989;48.796;9.806;2022-07-18T09:53:04;2.58;;;1.25;;
66183;SDS011;52989;48.796;9.806;2022-07-18T09:55:35;8.02;;;1.40;;
66183;SDS011;52989;48.796;9.806;2022-07-18T09:58:06;2.63;;;1.48;;
66183;SDS011;52989;48.796;9.806;2022-07-18T10:00:37;3.35;;;1.50;;
66183;SDS011;52989;48.796;9.806;2022-07-18T10:03:05;4.10;;;1.40;;
66183;SDS011;52989;48.796;9.806;2022-07-18T10:05:32;3.13;;;1.50;;
66183;SDS011;52989;48.796;9.806;2022-07-18T10:08:00;2.88;;;1.27;;
66183;SDS011;52989;48.796;9.806;2022-07-18T10:10:27;2.65;;;1.40;;
66183;SDS011;52989;48.796;9.806;2022-07-18T10:12:54;3.42;;;1.58;;
66183;SDS011;52989;48.796;9.806;2022-07-18T10:15:22;3.15;;;1.33;;
66183;SDS011;52989;48.796;9.806;2022-07-18T10:17:49;3.97;;;1.50;;
66183;SDS011;52989;48.796;9.806;2022-07-18T10:20:14;1.92;;;1.60;;
66183;SDS011;52989;48.796;9.806;2022-07-18T10:22:41;3.20;;;1.52;;
66183;SDS011;52989;48.796;9.806;2022-07-18T10:25:08;3.97;;;1.52;;
66183;SDS011;52989;48.796;9.806;2022-07-18T10:27:49;4.20;;;1.50;;
66183;SDS011;52989;48.796;9.806;2022-07-18T10:30:29;2.13;;;1.60;;
66183;SDS011;52989;48.796;9.806;2022-07-18T10:33:00;2.70;;;1.60;;
66183;SDS011;52989;48.796;9.806;2022-07-18T10:35:57;2.78;;;1.50;;
66183;SDS011;52989;48.796;9.806;2022-07-18T10:38:26;3.20;;;1.27;;
66183;SDS011;52989;48.796;9.806;2022-07-18T10:43:41;2.97;;;1.60;;
66183;SDS011;52989;48.796;9.806;2022-07-18T10:46:09;1.70;;;1.40;;
66183;SDS011;52989;48.796;9.806;2022-07-18T10:51:08;2.97;;;1.15;;
66183;SDS011;52989;48.796;9.806;2022-07-18T10:56:19;3.80;;;1.20;;
66183;SDS011;52989;48.796;9.806;2022-07-18T10:59:18;2.20;;;1.50;;
66183;SDS011;52989;48.796;9.806;2022-07-18T11:01:48;3.85;;;1.50;;
66183;SDS011;52989;48.796;9.806;2022-07-18T11:04:35;1.30;;;1.17;;
66183;SDS011;52989;48.796;9.806;2022-07-18T11:07:04;5.00;;;1.50;;
66183;SDS011;52989;48.796;9.806;2022-07-18T11:09:42;2.17;;;1.30;;
66183;SDS011;52989;48.796;9.806;2022-07-18T11:12:23;3.17;;;1.33;;
66183;SDS011;52989;48.796;9.806;2022-07-18T11:20:22;3.05;;;1.35;;
66183;SDS011;52989;48.796;9.806;2022-07-18T11:22:48;2.05;;;1.30;;
66183;SDS011;52989;48.796;9.806;2022-07-18T11:25:14;1.75;;;1.40;;
66183;SDS011;52989;48.796;9.806;2022-07-18T11:27:43;2.83;;;1.40;;
66183;SDS011;52989;48.796;9.806;2022-07-18T11:30:09;2.35;;;1.50;;
66183;SDS011;52989;48.796;9.806;2022-07-18T11:32:35;3.72;;;1.50;;
66183;SDS011;52989;48.796;9.806;2022-07-18T11:35:02;5.45;;;1.65;;
66183;SDS011;52989;48.796;9.806;2022-07-18T11:37:31;2.10;;;1.35;;
66183;SDS011;52989;48.796;9.806;2022-07-18T11:40:04;3.35;;;1.40;;
66183;SDS011;52989;48.796;9.806;2022-07-18T11:42:34;2.30;;;1.20;;
66183;SDS011;52989;48.796;9.806;2022-07-18T11:45:07;3.45;;;1.40;;
66183;SDS011;52989;48.796;9.806;2022-07-18T11:47:38;6.30;;;1.65;;
66183;SDS011;52989;48.796;9.806;2022-07-18T11:50:11;2.67;;;1.40;;
66183;SDS011;52989;48.796;9.806;2022-07-18T11:52:36;2.45;;;1.30;;
66183;SDS011;52989;48.796;9.806;2022-07-18T11:55:02;1.65;;;1.30;;
66183;SDS011;52989;48.796;9.806;2022-07-18T11:57:29;2.42;;;1.50;;
66183;SDS011;52989;48.796;9.806;2022-07-18T11:59:56;2.83;;;1.38;;
66183;SDS011;52989;48.796;9.806;2022-07-18T12:07:58;2.63;;;1.20;;
66183;SDS011;52989;48.796;9.806;2022-07-18T12:10:24;2.00;;;1.48;;
66183;SDS011;52989;48.796;9.806;2022-07-18T12:12:50;4.57;;;1.60;;
66183;SDS011;52989;48.796;9.806;2022-07-18T12:15:15;4.72;;;1.70;;
66183;SDS011;52989;48.796;9.806;2022-07-18T12:17:47;3.42;;;1.45;;
66183;SDS011;52989;48.796;9.806;2022-07-18T12:20:19;3.35;;;1.42;;
66183;SDS011;52989;48.796;9.806;2022-07-18T12:25:41;4.38;;;1.70;;
66183;SDS011;52989;48.796;9.806;2022-07-18T12:28:11;5.53;;;1.52;;
66183;SDS011;52989;48.796;9.806;2022-07-18T12:30:41;2.40;;;1.30;;
66183;SDS011;52989;48.796;9.806;2022-07-18T12:33:07;3.00;;;1.50;;
66183;SDS011;52989;48.796;9.806;2022-07-18T12:35:36;9.95;;;1.80;;
66183;SDS011;52989;48.796;9.806;2022-07-18T12:38:05;3.20;;;1.42;;
66183;SDS011;52989;48.796;9.806;2022-07-18T12:40:39;5.80;;;1.13;;
66183;SDS011;52989;48.796;9.806;2022-07-18T12:43:10;2.38;;;1.30;;
66183;SDS011;52989;48.796;9.806;2022-07-18T12:45:50;6.90;;;1.42;;
66183;SDS011;52989;48.796;9.806;2022-07-18T12:48:16;3.15;;;1.23;;
66183;SDS011;52989;48.796;9.806;2022-07-18T12:50:42;3.17;;;1.27;;
66183;SDS011;52989;48.796;9.806;2022-07-18T12:53:09;2.50;;;1.48;;
66183;SDS011;52989;48.796;9.806;2022-07-18T12:55:35;4.25;;;1.35;;
66183;SDS011;52989;48.796;9.806;2022-07-18T12:58:01;4.38;;;1.50;;
66183;SDS011;52989;48.796;9.806;2022-07-18T13:00:28;2.05;;;1.35;;
66183;SDS011;52989;48.796;9.806;2022-07-18T13:02:55;3.83;;;1.20;;
66183;SDS011;52989;48.796;9.806;2022-07-18T13:05:23;2.78;;;1.17;;
66183;SDS011;52989;48.796;9.806;2022-07-18T13:07:49;6.85;;;1.40;;
66183;SDS011;52989;48.796;9.806;2022-07-18T13:10:14;4.78;;;1.50;;
66183;SDS011;52989;48.796;9.806;2022-07-18T13:12:40;2.47;;;1.38;;
66183;SDS011;52989;48.796;9.806;2022-07-18T13:15:06;3.25;;;1.40;;
66183;SDS011;52989;48.796;9.806;2022-07-18T13:17:32;4.13;;;1.25;;
66183;SDS011;52989;48.796;9.806;2022-07-18T13:19:58;2.22;;;1.48;;
66183;SDS011;52989;48.796;9.806;2022-07-18T13:22:23;3.38;;;1.38;;
66183;SDS011;52989;48.796;9.806;2022-07-18T13:24:49;2.00;;;1.60;;
66183;SDS011;52989;48.796;9.806;2022-07-18T13:27:14;2.70;;;1.40;;
66183;SDS011;52989;48.796;9.806;2022-07-18T13:29:41;6.43;;;1.55;;
66183;SDS011;52989;48.796;9.806;2022-07-18T13:32:06;1.50;;;1.40;;
66183;SDS011;52989;48.796;9.806;2022-07-18T13:34:34;2.78;;;1.40;;
66183;SDS011;52989;48.796;9.806;2022-07-18T13:36:59;3.45;;;1.40;;
66183;SDS011;52989;48.796;9.806;2022-07-18T13:39:25;3.20;;;1.40;;
66183;SDS011;52989;48.796;9.806;2022-07-18T13:41:50;3.30;;;1.30;;
66183;SDS011;52989;48.796;9.806;2022-07-18T13:44:16;3.15;;;1.40;;
66183;SDS011;52989;48.796;9.806;2022-07-18T13:46:42;4.10;;;1.20;;
66183;SDS011;52989;48.796;9.806;2022-07-18T13:49:08;4.13;;;1.52;;
66183;SDS011;52989;48.796;9.806;2022-07-18T13:51:35;2.20;;;1.40;;
66183;SDS011;52989;48.796;9.806;2022-07-18T13:54:02;1.55;;;1.20;;
66183;SDS011;52989;48.796;9.806;2022-07-18T13:56:31;3.70;;;1.20;;
66183;SDS011;52989;48.796;9.806;2022-07-18T13:58:57;5.88;;;1.30;;
66183;SDS011;52989;48.796;9.806;2022-07-18T14:01:23;2.80;;;1.42;;
66183;SDS011;52989;48.796;9.806;2022-07-18T14:03:49;2.40;;;1.48;;
66183;SDS011;52989;48.796;9.806;2022-07-18T14:06:14;3.00;;;1.50;;
66183;SDS011;52989;48.796;9.806;2022-07-18T14:08:40;5.03;;;1.50;;
66183;SDS011;52989;48.796;9.806;2022-07-18T14:11:06;4.72;;;1.55;;
66183;SDS011;52989;48.796;9.806;2022-07-18T14:13:32;2.40;;;1.30;;
66183;SDS011;52989;48.796;9.806;2022-07-18T14:15:58;3.30;;;1.52;;
66183;SDS011;52989;48.796;9.806;2022-07-18T14:18:23;1.63;;;1.20;;
66183;SDS011;52989;48.796;9.806;2022-07-18T14:20:49;4.07;;;1.52;;
66183;SDS011;52989;48.796;9.806;2022-07-18T14:23:15;4.70;;;1.50;;
66183;SDS011;52989;48.796;9.806;2022-07-18T14:25:40;2.85;;;1.45;;
66183;SDS011;52989;48.796;9.806;2022-07-18T14:28:06;3.72;;;1.48;;
66183;SDS011;52989;48.796;9.806;2022-07-18T14:30:31;2.15;;;1.42;;
66183;SDS011;52989;48.796;9.806;2022-07-18T14:32:57;2.50;;;1.50;;
66183;SDS011;52989;48.796;9.806;2022-07-18T14:35:23;3.88;;;1.50;;
66183;SDS011;52989;48.796;9.806;2022-07-18T14:37:48;3.47;;;1.70;;
66183;SDS011;52989;48.796;9.806;2022-07-18T14:40:15;2.70;;;1.25;;
66183;SDS011;52989;48.796;9.806;2022-07-18T14:42:41;3.65;;;1.42;;
66183;SDS011;52989;48.796;9.806;2022-07-18T14:45:07;4.72;;;1.83;;
66183;SDS011;52989;48.796;9.806;2022-07-18T14:47:33;1.67;;;1.30;;
66183;SDS011;52989;48.796;9.806;2022-07-18T14:50:00;3.08;;;1.58;;
66183;SDS011;52989;48.796;9.806;2022-07-18T14:52:28;8.45;;;1.50;;
66183;SDS011;52989;48.796;9.806;2022-07-18T14:54:53;2.10;;;1.38;;
66183;SDS011;52989;48.796;9.806;2022-07-18T14:57:19;4.20;;;1.50;;
66183;SDS011;52989;48.796;9.806;2022-07-18T14:59:44;2.03;;;1.30;;
66183;SDS011;52989;48.796;9.806;2022-07-18T15:02:10;7.38;;;1.60;;
66183;SDS011;52989;48.796;9.806;2022-07-18T15:04:37;3.75;;;1.60;;
66183;SDS011;52989;48.796;9.806;2022-07-18T15:07:03;2.25;;;1.35;;
66183;SDS011;52989;48.796;9.806;2022-07-18T15:09:29;2.13;;;1.42;;
66183;SDS011;52989;48.796;9.806;2022-07-18T15:11:54;3.65;;;1.77;;